< < Back
Terminal Aerodrome Forecast


Current Version              Previous Versions:   1  2  3  4  5  6  7  8  9  

Terminal Aerodrome Forecast

834
FTUS42 KFFC 212323
TAFMCN
TAF
KMCN 212323Z 2200/2224 30012G20KT P6SM FEW050
     FM220200 31009KT P6SM SKC
     FM221000 VRB04KT P6SM SKC
     FM221400 02005KT P6SM SKC
     FM221700 05006KT P6SM FEW040=

Latest METAR

291
SAUS80 KWBC 221600 RRA
MTRMCN
METAR KMCN 221553Z 04008KT 10SM CLR 23/11 A3019 RMK AO2 SLP218
T02280111


USA.gov is the U.S. government's official web portal to all federal, state and local government web resources and services.